createdAt,value
2023-02-13T00:02:02.960Z,3.03
2023-02-13T00:05:17.624Z,2.98
2023-02-13T00:08:22.844Z,2.97
2023-02-13T00:11:29.371Z,3.03
2023-02-13T00:14:37.440Z,3.00
2023-02-13T00:17:42.797Z,2.97
2023-02-13T00:21:00.009Z,2.95
2023-02-13T00:24:05.651Z,2.91
2023-02-13T00:27:13.163Z,2.86
2023-02-13T00:30:18.960Z,2.93
2023-02-13T00:33:27.155Z,2.95
2023-02-13T00:36:32.462Z,3.04
2023-02-13T00:39:37.511Z,3.04
2023-02-13T00:42:44.058Z,2.96
2023-02-13T00:45:49.524Z,2.95
2023-02-13T00:48:54.699Z,2.84
2023-02-13T00:51:59.676Z,2.85
2023-02-13T00:55:04.903Z,2.95
2023-02-13T00:58:13.660Z,2.83
2023-02-13T01:01:18.947Z,2.83
2023-02-13T01:04:24.121Z,3.09
2023-02-13T01:07:30.055Z,2.96
2023-02-13T01:10:35.442Z,2.88
2023-02-13T01:13:42.213Z,2.91
2023-02-13T01:16:47.624Z,2.98
2023-02-13T01:19:52.784Z,2.98
2023-02-13T01:22:58.523Z,3.26
2023-02-13T01:26:05.610Z,3.01
2023-02-13T01:29:14.526Z,3.13
2023-02-13T01:32:19.615Z,3.02
2023-02-13T01:35:25.068Z,3.00
2023-02-13T01:38:30.147Z,2.92
2023-02-13T01:41:35.556Z,3.00
2023-02-13T01:44:53.942Z,2.96
2023-02-13T01:48:01.148Z,2.94
2023-02-13T01:51:10.373Z,2.89
2023-02-13T01:54:17.102Z,2.85
2023-02-13T01:57:24.862Z,2.93
2023-02-13T02:00:31.734Z,2.94
2023-02-13T02:03:39.129Z,2.94
2023-02-13T02:06:50.423Z,3.02
2023-02-13T02:10:06.391Z,2.96
2023-02-13T02:13:14.236Z,2.92
2023-02-13T02:16:20.824Z,3.06
2023-02-13T02:19:35.070Z,3.01
2023-02-13T02:23:05.204Z,2.94
2023-02-13T02:26:42.494Z,3.04
2023-02-13T02:30:25.929Z,2.86
2023-02-13T02:33:38.499Z,2.94
2023-02-13T02:37:00.537Z,2.91
2023-02-13T02:40:19.874Z,2.89
2023-02-13T02:43:34.081Z,2.98
2023-02-13T02:47:08.325Z,2.94
2023-02-13T02:50:34.086Z,2.98
2023-02-13T02:53:43.256Z,2.93
2023-02-13T02:56:50.928Z,2.80
2023-02-13T03:00:14.097Z,2.79
2023-02-13T03:03:39.375Z,2.77
2023-02-13T03:06:50.462Z,2.75
2023-02-13T03:10:16.377Z,2.76
2023-02-13T03:13:35.748Z,2.83
2023-02-13T03:16:58.072Z,2.78
2023-02-13T03:20:34.864Z,2.76
2023-02-13T03:23:48.682Z,2.87
2023-02-13T03:26:59.656Z,2.88
2023-02-13T03:30:13.122Z,2.88
2023-02-13T03:33:29.942Z,2.93
2023-02-13T03:37:06.335Z,3.08
2023-02-13T03:40:17.162Z,2.94
2023-02-13T03:43:22.512Z,2.93
2023-02-13T03:46:30.430Z,2.92
2023-02-13T03:49:55.977Z,3.02
2023-02-13T03:53:04.307Z,2.99
2023-02-13T03:56:29.967Z,2.94
2023-02-13T03:59:37.700Z,2.91
2023-02-13T04:02:53.469Z,3.01
2023-02-13T04:06:02.928Z,3.00
2023-02-13T04:09:08.419Z,3.01
2023-02-13T04:12:19.635Z,3.00
2023-02-13T04:15:29.604Z,2.99
2023-02-13T04:18:36.042Z,3.04
2023-02-13T04:21:42.113Z,2.93
2023-02-13T04:24:48.224Z,2.96
2023-02-13T04:27:54.465Z,3.15
2023-02-13T04:31:01.125Z,3.11
2023-02-13T04:34:06.269Z,3.05
2023-02-13T04:37:11.521Z,3.10
2023-02-13T04:40:16.685Z,3.17
2023-02-13T04:43:23.572Z,3.14
2023-02-13T04:46:29.871Z,3.19
2023-02-13T04:49:34.964Z,3.20
2023-02-13T04:52:39.973Z,3.22
2023-02-13T04:55:45.524Z,3.32
2023-02-13T04:58:51.998Z,3.17
2023-02-13T05:01:59.324Z,3.22
2023-02-13T05:05:04.122Z,3.16
2023-02-13T05:08:11.106Z,3.18
2023-02-13T05:11:16.181Z,3.07
2023-02-13T05:14:22.743Z,3.10
2023-02-13T05:17:28.402Z,3.03
2023-02-13T05:20:33.665Z,3.10
2023-02-13T05:23:38.118Z,2.98
2023-02-13T05:26:43.171Z,2.95
2023-02-13T05:29:49.659Z,2.90
2023-02-13T05:32:55.103Z,2.89
2023-02-13T05:36:00.730Z,2.90
2023-02-13T05:39:06.810Z,2.87
2023-02-13T05:42:12.283Z,2.84
2023-02-13T05:45:18.978Z,2.81
2023-02-13T05:48:24.213Z,2.82
2023-02-13T05:51:29.584Z,2.76
2023-02-13T05:54:34.644Z,2.80
2023-02-13T05:57:39.782Z,2.83
2023-02-13T06:00:46.424Z,2.86
2023-02-13T06:03:51.712Z,2.81
2023-02-13T06:06:56.791Z,2.84
2023-02-13T06:10:02.064Z,2.80
2023-02-13T06:13:07.324Z,2.75
2023-02-13T06:16:16.081Z,2.90
2023-02-13T06:19:21.230Z,2.77
2023-02-13T06:22:26.514Z,2.73
2023-02-13T06:25:31.900Z,2.69
2023-02-13T06:28:37.514Z,2.58
2023-02-13T06:31:45.038Z,2.52
2023-02-13T06:34:50.302Z,2.56
2023-02-13T06:37:55.493Z,2.56
2023-02-13T06:41:03.100Z,2.53
2023-02-13T06:44:08.399Z,2.59
2023-02-13T06:47:19.943Z,2.66
2023-02-13T06:50:25.266Z,2.58
2023-02-13T06:53:30.547Z,2.58
2023-02-13T06:56:35.598Z,2.61
2023-02-13T06:59:40.849Z,2.56
2023-02-13T07:02:48.338Z,2.50
2023-02-13T07:05:53.624Z,2.60
2023-02-13T07:08:58.766Z,2.65
2023-02-13T07:12:05.808Z,2.59
2023-02-13T07:15:11.429Z,2.55
2023-02-13T07:18:17.998Z,2.57
2023-02-13T07:21:23.347Z,2.57
2023-02-13T07:24:28.340Z,2.63
2023-02-13T07:27:33.676Z,2.64
2023-02-13T07:30:40.582Z,2.62
2023-02-13T07:33:49.445Z,2.63
2023-02-13T07:36:54.770Z,2.65
2023-02-13T07:39:59.886Z,2.68
2023-02-13T07:43:05.078Z,2.68
2023-02-13T07:46:12.663Z,2.75
2023-02-13T07:49:19.199Z,2.68
2023-02-13T07:52:24.487Z,2.74
2023-02-13T07:55:29.989Z,2.71
2023-02-13T07:58:35.117Z,2.76
2023-02-13T08:01:40.065Z,2.78
2023-02-13T08:04:47.318Z,2.82
2023-02-13T08:07:54.791Z,2.83
2023-02-13T08:11:21.892Z,2.85
2023-02-13T08:14:28.212Z,2.91
2023-02-13T08:17:33.253Z,2.93
2023-02-13T08:20:39.659Z,2.90
2023-02-13T08:23:44.765Z,2.95
2023-02-13T08:26:50.159Z,2.97
2023-02-13T08:29:55.173Z,3.03
2023-02-13T08:33:00.405Z,3.08
2023-02-13T08:36:07.691Z,3.07
2023-02-13T08:39:13.076Z,3.17
2023-02-13T08:42:18.531Z,3.16
2023-02-13T08:45:23.526Z,3.16
2023-02-13T08:48:28.872Z,3.20
2023-02-13T08:51:35.028Z,3.32
2023-02-13T08:54:40.080Z,3.36
2023-02-13T08:57:45.099Z,3.38
2023-02-13T09:00:50.244Z,3.44
2023-02-13T09:03:56.108Z,3.52
2023-02-13T09:07:02.461Z,3.61
2023-02-13T09:10:08.839Z,3.64
2023-02-13T09:13:13.968Z,3.74
2023-02-13T09:16:19.139Z,3.83
2023-02-13T09:19:24.497Z,3.89
2023-02-13T09:22:31.735Z,4.01
2023-02-13T09:25:36.461Z,4.07
2023-02-13T09:28:42.058Z,4.18
2023-02-13T09:31:47.318Z,4.23
2023-02-13T09:34:52.567Z,4.30
2023-02-13T09:38:01.366Z,4.37
2023-02-13T09:41:09.588Z,4.42
2023-02-13T09:44:34.029Z,4.54
2023-02-13T09:47:41.997Z,4.56
2023-02-13T09:50:47.028Z,4.62
2023-02-13T09:53:56.287Z,4.59
2023-02-13T09:57:05.444Z,4.71
2023-02-13T10:00:17.144Z,4.68
2023-02-13T10:03:28.882Z,4.69
2023-02-13T10:06:36.997Z,4.84
2023-02-13T10:09:52.531Z,4.83
2023-02-13T10:13:16.932Z,4.84
2023-02-13T10:16:23.940Z,4.85
2023-02-13T10:19:37.780Z,4.89
2023-02-13T10:22:49.150Z,4.95
2023-02-13T10:25:58.650Z,4.97
2023-02-13T10:29:25.219Z,4.99
2023-02-13T10:32:36.488Z,5.01
2023-02-13T10:35:41.581Z,5.05
2023-02-13T10:38:51.768Z,5.14
2023-02-13T10:42:18.004Z,5.15
2023-02-13T10:45:47.814Z,5.21
2023-02-13T10:49:15.408Z,5.18
2023-02-13T10:52:32.287Z,5.24
2023-02-13T10:56:02.883Z,5.28
2023-02-13T10:59:20.290Z,5.33
2023-02-13T11:02:27.589Z,5.22
2023-02-13T11:05:34.459Z,5.33
2023-02-13T11:08:43.448Z,5.41
2023-02-13T11:11:48.807Z,5.40
2023-02-13T11:15:25.219Z,5.41
2023-02-13T11:18:34.370Z,5.39
2023-02-13T11:21:40.348Z,5.44
2023-02-13T11:24:54.012Z,5.45
2023-02-13T11:28:10.584Z,5.57
2023-02-13T11:31:26.075Z,5.58
2023-02-13T11:34:32.873Z,5.68
2023-02-13T11:37:38.323Z,5.69
2023-02-13T11:40:46.120Z,5.69
2023-02-13T11:43:54.775Z,5.75
2023-02-13T11:47:03.246Z,5.80
2023-02-13T11:50:21.553Z,5.78
2023-02-13T11:53:29.253Z,5.88
2023-02-13T11:57:04.060Z,5.84
2023-02-13T12:00:37.619Z,5.95
2023-02-13T12:03:44.435Z,5.95
2023-02-13T12:07:03.942Z,5.92
2023-02-13T12:10:18.512Z,5.96
2023-02-13T12:13:29.173Z,5.99
2023-02-13T12:16:37.426Z,5.96
2023-02-13T12:19:45.755Z,5.98
2023-02-13T12:22:59.299Z,6.12
2023-02-13T12:26:12.337Z,6.14
2023-02-13T12:29:34.311Z,6.16
2023-02-13T12:32:47.541Z,6.17
2023-02-13T12:35:59.476Z,6.19
2023-02-13T12:39:19.257Z,6.31
2023-02-13T12:42:35.288Z,6.25
2023-02-13T12:45:44.226Z,6.25
2023-02-13T12:48:57.708Z,6.29
2023-02-13T12:52:16.420Z,6.33
2023-02-13T12:55:35.039Z,6.34
2023-02-13T12:59:12.790Z,6.31
2023-02-13T13:02:53.518Z,6.38
2023-02-13T13:06:15.457Z,6.35
2023-02-13T13:09:56.854Z,6.34
2023-02-13T13:13:08.715Z,6.34
2023-02-13T13:16:19.161Z,6.37
2023-02-13T13:19:31.217Z,6.32
2023-02-13T13:22:41.636Z,6.32
2023-02-13T13:25:54.404Z,6.36
2023-02-13T13:29:01.272Z,6.35
2023-02-13T13:32:09.285Z,6.41
2023-02-13T13:35:16.577Z,6.59
2023-02-13T13:38:27.330Z,6.54
2023-02-13T13:41:40.250Z,6.45
2023-02-13T13:44:52.338Z,6.39
2023-02-13T13:48:15.730Z,6.41
2023-02-13T13:51:21.376Z,6.35
2023-02-13T13:54:37.822Z,6.41
2023-02-13T13:58:05.581Z,6.30
2023-02-13T14:01:29.404Z,6.29
2023-02-13T14:04:41.722Z,6.37
2023-02-13T14:07:47.826Z,6.35
2023-02-13T14:11:25.640Z,6.34
2023-02-13T14:14:56.269Z,6.46
2023-02-13T14:18:02.035Z,6.31
2023-02-13T14:21:07.489Z,6.28
2023-02-13T14:24:21.078Z,6.26
2023-02-13T14:27:27.836Z,6.22
2023-02-13T14:30:36.079Z,6.27
2023-02-13T14:33:41.588Z,6.15
2023-02-13T14:36:48.839Z,6.11
2023-02-13T14:40:28.561Z,6.00
2023-02-13T14:43:47.680Z,5.95
2023-02-13T14:46:54.635Z,5.92
2023-02-13T14:50:00.970Z,5.94
2023-02-13T14:53:10.310Z,5.82
2023-02-13T14:56:18.893Z,5.73
2023-02-13T14:59:27.482Z,5.75
2023-02-13T15:02:37.052Z,5.67
2023-02-13T15:05:42.347Z,5.69
2023-02-13T15:08:50.781Z,5.63
2023-02-13T15:11:55.930Z,5.53
2023-02-13T15:15:02.515Z,5.71
2023-02-13T15:18:12.906Z,5.52
2023-02-13T15:21:20.354Z,5.55
2023-02-13T15:24:26.130Z,5.45
2023-02-13T15:27:33.261Z,5.54
2023-02-13T15:30:39.629Z,5.63
2023-02-13T15:33:49.342Z,5.46
2023-02-13T15:36:55.584Z,5.32
2023-02-13T15:40:17.469Z,5.20
2023-02-13T15:43:32.165Z,5.09
2023-02-13T15:46:38.722Z,5.07
2023-02-13T15:49:49.848Z,5.21
2023-02-13T15:52:55.838Z,5.08
2023-02-13T15:56:03.983Z,5.07
2023-02-13T15:59:11.794Z,5.16
2023-02-13T16:02:20.557Z,4.99
2023-02-13T16:05:39.309Z,5.17
2023-02-13T16:08:47.181Z,4.98
2023-02-13T16:11:52.555Z,5.01
2023-02-13T16:15:02.349Z,5.07
2023-02-13T16:18:13.528Z,5.15
2023-02-13T16:21:24.296Z,4.98
2023-02-13T16:24:31.139Z,4.90
2023-02-13T16:27:36.857Z,4.85
2023-02-13T16:30:43.098Z,4.78
2023-02-13T16:33:48.229Z,4.83
2023-02-13T16:36:54.925Z,4.81
2023-02-13T16:40:30.892Z,4.79
2023-02-13T16:43:41.367Z,4.99
2023-02-13T16:46:56.561Z,4.76
2023-02-13T16:50:02.287Z,4.73
2023-02-13T16:53:09.081Z,4.74
2023-02-13T16:56:14.691Z,4.73
2023-02-13T16:59:32.556Z,4.71
2023-02-13T17:02:40.034Z,4.67
2023-02-13T17:05:45.403Z,4.68
2023-02-13T17:08:52.426Z,4.65
2023-02-13T17:11:57.686Z,4.61
2023-02-13T17:15:03.181Z,4.65
2023-02-13T17:18:08.225Z,4.63
2023-02-13T17:21:14.027Z,4.70
2023-02-13T17:24:21.126Z,4.63
2023-02-13T17:27:26.203Z,4.83
2023-02-13T17:30:33.427Z,4.65
2023-02-13T17:33:40.161Z,4.79
2023-02-13T17:36:45.439Z,4.61
2023-02-13T17:39:51.960Z,4.49
2023-02-13T17:42:58.295Z,4.50
2023-02-13T17:46:03.132Z,4.39
2023-02-13T17:49:08.874Z,4.46
2023-02-13T17:52:17.429Z,4.45
2023-02-13T17:55:25.729Z,4.44
2023-02-13T17:58:30.875Z,4.39
2023-02-13T18:01:36.195Z,4.40
2023-02-13T18:04:43.983Z,4.39
2023-02-13T18:07:51.020Z,4.57
2023-02-13T18:10:57.789Z,4.58
2023-02-13T18:14:03.068Z,4.62
2023-02-13T18:17:08.412Z,4.40
2023-02-13T18:20:16.449Z,4.44
2023-02-13T18:23:23.721Z,4.30
2023-02-13T18:26:30.347Z,4.37
2023-02-13T18:29:40.325Z,4.31
2023-02-13T18:32:45.160Z,4.34
2023-02-13T18:35:50.316Z,4.35
2023-02-13T18:38:55.601Z,4.51
2023-02-13T18:42:03.845Z,4.32
2023-02-13T18:45:13.846Z,4.36
2023-02-13T18:48:19.151Z,4.53
2023-02-13T18:51:24.597Z,4.38
2023-02-13T18:54:29.725Z,4.55
2023-02-13T18:57:37.814Z,4.58
2023-02-13T19:00:42.973Z,4.57
2023-02-13T19:03:49.387Z,4.55
2023-02-13T19:06:54.470Z,4.55
2023-02-13T19:09:59.881Z,4.60
2023-02-13T19:13:06.443Z,4.48
2023-02-13T19:16:16.821Z,4.52
2023-02-13T19:19:21.868Z,4.70
2023-02-13T19:22:27.076Z,4.67
2023-02-13T19:25:32.632Z,4.71
2023-02-13T19:28:39.059Z,4.72
2023-02-13T19:31:44.209Z,4.78
2023-02-13T19:34:49.598Z,4.79
2023-02-13T19:37:54.731Z,4.94
2023-02-13T19:41:04.942Z,5.20
2023-02-13T19:44:11.402Z,5.01
2023-02-13T19:47:16.201Z,5.24
2023-02-13T19:50:22.493Z,5.10
2023-02-13T19:53:28.014Z,5.15
2023-02-13T19:56:36.764Z,5.11
2023-02-13T19:59:43.590Z,5.21
2023-02-13T20:02:48.997Z,5.21
2023-02-13T20:05:54.313Z,5.18
2023-02-13T20:09:01.708Z,5.28
2023-02-13T20:12:07.462Z,5.29
2023-02-13T20:15:14.008Z,5.29
2023-02-13T20:18:19.761Z,5.22
2023-02-13T20:21:26.356Z,5.25
2023-02-13T20:24:33.027Z,5.37
2023-02-13T20:27:42.522Z,5.33
2023-02-13T20:30:49.994Z,5.37
2023-02-13T20:33:55.117Z,5.29
2023-02-13T20:37:00.449Z,5.28
2023-02-13T20:40:05.833Z,5.25
2023-02-13T20:43:11.559Z,5.25
2023-02-13T20:46:18.452Z,5.28
2023-02-13T20:49:23.542Z,5.27
2023-02-13T20:52:28.761Z,5.34
2023-02-13T20:55:34.269Z,5.48
2023-02-13T20:58:40.052Z,5.44
2023-02-13T21:01:46.698Z,5.32
2023-02-13T21:04:52.323Z,5.37
2023-02-13T21:07:57.758Z,5.36
2023-02-13T21:11:03.173Z,5.34
2023-02-13T21:14:08.651Z,5.29
2023-02-13T21:17:15.275Z,5.34
2023-02-13T21:20:20.475Z,5.27
2023-02-13T21:23:25.711Z,5.25
2023-02-13T21:26:31.019Z,5.22
2023-02-13T21:29:38.080Z,5.31
2023-02-13T21:32:44.642Z,5.32
2023-02-13T21:35:49.393Z,5.14
2023-02-13T21:38:54.510Z,5.22
2023-02-13T21:41:59.687Z,5.32
2023-02-13T21:45:05.336Z,5.35
2023-02-13T21:48:16.434Z,5.25
2023-02-13T21:51:22.995Z,5.29
2023-02-13T21:54:28.447Z,5.36
2023-02-13T21:57:33.949Z,5.35
2023-02-13T22:00:39.222Z,5.32
2023-02-13T22:03:46.121Z,5.40
2023-02-13T22:06:52.451Z,5.32
2023-02-13T22:09:57.698Z,5.32
2023-02-13T22:13:02.737Z,5.30
2023-02-13T22:16:09.640Z,5.32
2023-02-13T22:19:17.027Z,5.33
2023-02-13T22:22:22.508Z,5.33
2023-02-13T22:25:29.055Z,5.24
2023-02-13T22:28:34.761Z,5.20
2023-02-13T22:31:41.777Z,5.16
2023-02-13T22:34:48.146Z,5.43
2023-02-13T22:37:53.175Z,5.28
2023-02-13T22:40:58.228Z,5.28
2023-02-13T22:44:03.536Z,5.20
2023-02-13T22:47:08.728Z,5.20
2023-02-13T22:50:16.057Z,5.17
2023-02-13T22:53:21.575Z,5.19
2023-02-13T22:56:27.222Z,5.15
2023-02-13T22:59:38.168Z,5.14
2023-02-13T23:02:44.360Z,5.24
2023-02-13T23:05:50.955Z,5.17
2023-02-13T23:08:57.871Z,5.07
2023-02-13T23:12:20.483Z,5.15
2023-02-13T23:15:25.540Z,5.23
2023-02-13T23:18:30.731Z,5.19
2023-02-13T23:21:37.224Z,5.10
2023-02-13T23:24:42.934Z,5.07
2023-02-13T23:27:48.286Z,5.09
2023-02-13T23:30:53.450Z,5.13
2023-02-13T23:33:58.628Z,5.15
2023-02-13T23:37:05.315Z,5.15
2023-02-13T23:40:13.431Z,5.09
2023-02-13T23:43:18.587Z,5.01
2023-02-13T23:46:23.777Z,5.01
2023-02-13T23:49:29.042Z,4.97
2023-02-13T23:52:35.523Z,5.01
2023-02-13T23:55:41.000Z,5.05
2023-02-13T23:58:46.228Z,5.15
